Tropical Cyclones
[Index]
Main Index Home Page Stock Weather Photos Extreme Storms Discussion Storm News and Storm Chasing Reports Tropical Cyclones / Hurricanes / Typhoons Weather Data and Links Wild Fires / Bushfires Weather Observation Techniques Weather Picture Catalogue Tornado Pictures and Reports Stock Video Footage and DVDs for sale
Season 1984-1985 Tropical Cyclone HUBERT Track Map
Season 1984-1985 Summaries: [BoM-AU] [JTWC-AU] [JTWC-SIO] [JTWC-SPAC] [JTWC-SH]
<<- Previous TC | JTWC 1984-1985 Season | Next TC ->>

click for intensity scale information  Lat/long Grid: Show Hide

 Date Labels: Show Hide

Joint Typhoon Warning Centre Cyclone Data

Name: HUBERT

10 Feb 1985 18:00 UTC to 18 Feb 1985 06:00 UTC

    date/time    lat    long     hPa   cat  kts
1985-02-10 18   14.4   127.2                  20          
1985-02-11 00   14.4   126.7                  20          
1985-02-11 06   14.4   126.0                  25          
1985-02-11 12   14.5   125.2                  25          
1985-02-11 18   14.6   124.3                  30          
1985-02-12 00   14.8   123.5                  30          
1985-02-12 06   15.0   122.6                  35          
1985-02-12 12   15.4   121.6            1     40          
1985-02-12 18   15.8   120.4            1     45          
1985-02-13 00   16.0   119.2            1     50          
1985-02-13 06   16.2   117.8            2     55          
1985-02-13 12   16.5   116.3            2     55          
1985-02-13 18   16.8   114.6            2     55          
1985-02-14 00   17.2   112.8            2     55          
1985-02-14 06   17.7   111.0            2     55          
1985-02-14 12   18.2   109.2            2     55          
1985-02-14 18   18.7   107.4            2     55          
1985-02-15 00   19.2   105.6            2     55          
1985-02-15 06   19.6   103.7            1     50          
1985-02-15 12   19.9   101.8            1     45          
1985-02-15 18   19.9    99.9            1     40          
1985-02-16 00   19.3    98.0            1     40          
1985-02-16 06   18.6    96.2                  35          
1985-02-16 12   18.4    94.6                  35          
1985-02-16 18   18.4    93.1                  30          
1985-02-17 00   18.5    91.6                  30          
1985-02-17 06   18.6    90.3                  25          
1985-02-17 12   18.9    89.3                  25          
1985-02-17 18   19.2    88.2                  20          
1985-02-18 00   19.2    87.2                  20          
1985-02-18 06   19.0    86.1                  20          
Winds are 1-min average.

Tropical cyclone tracks developed by Michael Bath using data from the Joint Typhoon Warning Centre Best Tracks and Google Maps.


[Australian Severe Weather index] [Copyright Notice] [Email Contacts] [Search This Site] [Privacy Policy]
Document: tropical_cyclone_hubert.htm Updated: 18 September 2016